createdAt,value
2023-05-12T00:00:02.674Z,28.10
2023-05-12T00:01:02.703Z,28.12
2023-05-12T00:02:02.765Z,28.16
2023-05-12T00:03:02.856Z,28.16
2023-05-12T00:04:03.077Z,28.12
2023-05-12T00:05:03.054Z,28.07
2023-05-12T00:06:03.021Z,28.06
2023-05-12T00:07:03.069Z,28.04
2023-05-12T00:08:03.164Z,28.07
2023-05-12T00:09:03.187Z,28.06
2023-05-12T00:10:03.254Z,28.07
2023-05-12T00:11:03.307Z,28.10
2023-05-12T00:12:03.356Z,28.12
2023-05-12T00:13:03.438Z,28.12
2023-05-12T00:14:03.467Z,28.10
2023-05-12T00:15:03.517Z,28.12
2023-05-12T00:16:03.650Z,28.10
2023-05-12T00:17:03.653Z,28.09
2023-05-12T00:18:03.781Z,28.13
2023-05-12T00:19:03.875Z,28.09
2023-05-12T00:20:03.816Z,28.09
2023-05-12T00:21:03.892Z,28.09
2023-05-12T00:22:03.939Z,28.13
2023-05-12T00:23:04.004Z,28.04
2023-05-12T00:24:04.040Z,28.07
2023-05-12T00:25:04.097Z,28.09
2023-05-12T00:26:04.278Z,28.12
2023-05-12T00:27:04.208Z,28.13
2023-05-12T00:28:04.316Z,28.14
2023-05-12T00:29:04.345Z,28.10
2023-05-12T00:30:04.403Z,28.13
2023-05-12T00:31:04.482Z,28.06
2023-05-12T00:32:04.624Z,28.13
2023-05-12T00:33:04.630Z,28.09
2023-05-12T00:34:04.635Z,28.09
2023-05-12T00:35:04.697Z,28.07
2023-05-12T00:36:04.790Z,28.09
2023-05-12T00:37:04.852Z,28.09
2023-05-12T00:38:04.864Z,28.09
2023-05-12T00:39:04.931Z,28.09
2023-05-12T00:40:05.006Z,28.07
2023-05-12T00:41:05.077Z,28.10
2023-05-12T00:42:05.122Z,28.07
2023-05-12T00:43:05.149Z,28.04
2023-05-12T00:44:05.258Z,28.06
2023-05-12T00:45:05.276Z,28.07
2023-05-12T00:46:05.418Z,28.12
2023-05-12T00:47:05.378Z,28.03
2023-05-12T00:48:05.477Z,28.07
2023-05-12T00:49:05.498Z,28.08
2023-05-12T00:50:05.534Z,28.06
2023-05-12T00:51:05.612Z,28.06
2023-05-12T00:52:05.649Z,28.04
2023-05-12T00:53:05.705Z,28.10
2023-05-12T00:54:05.777Z,28.04
2023-05-12T00:55:05.823Z,28.04
2023-05-12T00:56:05.850Z,28.04
2023-05-12T00:57:05.903Z,28.09
2023-05-12T00:58:05.960Z,28.07
2023-05-12T00:59:06.052Z,28.06
2023-05-12T01:00:06.058Z,28.04
2023-05-12T01:01:06.144Z,28.08
2023-05-12T01:02:06.221Z,28.07
2023-05-12T01:03:06.356Z,28.07
2023-05-12T01:04:06.288Z,28.10
2023-05-12T01:05:06.363Z,28.04
2023-05-12T01:06:06.411Z,28.11
2023-05-12T01:07:06.450Z,28.07
2023-05-12T01:08:06.546Z,28.12
2023-05-12T01:09:06.556Z,28.17
2023-05-12T01:10:06.618Z,28.04
2023-05-12T01:11:06.686Z,28.08
2023-05-12T01:12:06.709Z,28.08
2023-05-12T01:13:06.775Z,28.08
2023-05-12T01:14:06.822Z,28.07
2023-05-12T01:15:06.886Z,28.06
2023-05-12T01:16:06.969Z,28.10
2023-05-12T01:17:07.060Z,28.04
2023-05-12T01:18:07.100Z,28.07
2023-05-12T01:19:07.160Z,28.07
2023-05-12T01:20:07.154Z,28.08
2023-05-12T01:21:07.212Z,28.10
2023-05-12T01:22:07.257Z,28.07
2023-05-12T01:23:07.330Z,28.11
2023-05-12T01:24:07.376Z,28.04
2023-05-12T01:25:07.409Z,28.05
2023-05-12T01:26:07.466Z,28.04
2023-05-12T01:27:07.532Z,28.08
2023-05-12T01:28:07.568Z,28.07
2023-05-12T01:29:07.642Z,28.10
2023-05-12T01:30:07.672Z,28.06
2023-05-12T01:31:07.795Z,28.10
2023-05-12T01:32:07.788Z,28.05
2023-05-12T01:33:07.848Z,28.04
2023-05-12T01:34:07.902Z,28.08
2023-05-12T01:35:07.993Z,28.03
2023-05-12T01:36:08.004Z,28.03
2023-05-12T01:37:08.070Z,27.98
2023-05-12T01:38:08.118Z,28.06
2023-05-12T01:39:08.170Z,28.04
2023-05-12T01:40:08.226Z,28.03
2023-05-12T01:41:08.290Z,28.00
2023-05-12T01:42:08.320Z,28.01
2023-05-12T01:43:08.392Z,28.06
2023-05-12T01:44:08.443Z,28.10
2023-05-12T01:45:08.490Z,28.04
2023-05-12T01:46:08.616Z,28.01
2023-05-12T01:47:08.607Z,28.08
2023-05-12T01:48:08.660Z,28.08
2023-05-12T01:49:08.703Z,28.08
2023-05-12T01:50:08.800Z,28.01
2023-05-12T01:51:08.875Z,28.07
2023-05-12T01:52:08.909Z,28.06
2023-05-12T01:53:08.931Z,28.03
2023-05-12T01:54:08.983Z,28.11
2023-05-12T01:55:09.034Z,28.13
2023-05-12T01:56:09.093Z,28.07
2023-05-12T01:57:09.162Z,28.05
2023-05-12T01:58:09.196Z,28.10
2023-05-12T01:59:09.308Z,28.08
2023-05-12T02:00:09.339Z,28.09
2023-05-12T02:01:09.349Z,28.08
2023-05-12T02:02:09.464Z,28.07
2023-05-12T02:03:09.577Z,28.08
2023-05-12T02:04:09.643Z,28.10
2023-05-12T02:05:09.580Z,28.13
2023-05-12T02:06:09.625Z,28.09
2023-05-12T02:07:09.669Z,28.08
2023-05-12T02:08:09.725Z,28.10
2023-05-12T02:09:09.806Z,28.05
2023-05-12T02:10:09.846Z,28.07
2023-05-12T02:11:09.915Z,28.12
2023-05-12T02:12:09.953Z,28.07
2023-05-12T02:13:10.032Z,28.15
2023-05-12T02:14:10.092Z,28.11
2023-05-12T02:15:10.144Z,28.08
2023-05-12T02:16:10.266Z,28.08
2023-05-12T02:17:10.260Z,28.04
2023-05-12T02:18:10.465Z,28.07
2023-05-12T02:19:10.491Z,28.17
2023-05-12T02:20:10.437Z,28.14
2023-05-12T02:21:10.485Z,28.11
2023-05-12T02:22:10.548Z,28.15
2023-05-12T02:23:10.595Z,28.12
2023-05-12T02:24:11.595Z,28.12
2023-05-12T02:25:10.711Z,28.07
2023-05-12T02:26:10.759Z,28.05
2023-05-12T02:27:10.915Z,28.09
2023-05-12T02:28:10.897Z,28.08
2023-05-12T02:29:10.941Z,28.09
2023-05-12T02:30:11.013Z,28.14
2023-05-12T02:31:11.056Z,28.11
2023-05-12T02:32:11.429Z,28.13
2023-05-12T02:33:11.210Z,28.12
2023-05-12T02:34:11.236Z,28.14
2023-05-12T02:35:11.295Z,28.09
2023-05-12T02:36:11.372Z,28.15
2023-05-12T02:37:11.409Z,28.07
2023-05-12T02:38:11.476Z,28.07
2023-05-12T02:39:11.590Z,28.09
2023-05-12T02:40:11.588Z,28.07
2023-05-12T02:41:11.641Z,28.09
2023-05-12T02:42:11.723Z,28.11
2023-05-12T02:43:11.776Z,28.09
2023-05-12T02:44:11.836Z,28.05
2023-05-12T02:45:11.913Z,28.03
2023-05-12T02:46:12.014Z,28.08
2023-05-12T02:47:12.013Z,28.09
2023-05-12T02:48:12.089Z,28.09
2023-05-12T02:49:12.130Z,28.03
2023-05-12T02:50:12.214Z,28.07
2023-05-12T02:51:12.263Z,28.11
2023-05-12T02:52:12.310Z,28.08
2023-05-12T02:53:12.369Z,28.15
2023-05-12T02:54:12.452Z,28.12
2023-05-12T02:55:12.474Z,28.05
2023-05-12T02:56:13.311Z,28.09
2023-05-12T02:57:12.606Z,28.12
2023-05-12T02:58:12.680Z,28.11
2023-05-12T02:59:12.757Z,28.09
2023-05-12T03:00:12.804Z,28.11
2023-05-12T03:01:12.896Z,28.09
2023-05-12T03:02:13.007Z,28.07
2023-05-12T03:03:13.043Z,28.11
2023-05-12T03:04:13.061Z,28.08
2023-05-12T03:05:13.116Z,28.09
2023-05-12T03:06:13.166Z,28.09
2023-05-12T03:07:13.221Z,28.12
2023-05-12T03:08:13.272Z,28.11
2023-05-12T03:09:13.356Z,28.12
2023-05-12T03:10:13.396Z,28.07
2023-05-12T03:11:13.471Z,28.11
2023-05-12T03:12:13.542Z,28.07
2023-05-12T03:13:13.592Z,28.09
2023-05-12T03:14:13.634Z,28.11
2023-05-12T03:15:13.698Z,28.09
2023-05-12T03:16:13.787Z,28.05
2023-05-12T03:17:13.924Z,28.09
2023-05-12T03:18:13.886Z,28.14
2023-05-12T03:19:13.959Z,28.09
2023-05-12T03:20:14.040Z,28.06
2023-05-12T03:21:14.097Z,28.11
2023-05-12T03:22:14.147Z,28.09
2023-05-12T03:23:14.198Z,28.06
2023-05-12T03:24:14.249Z,28.09
2023-05-12T03:25:14.307Z,28.11
2023-05-12T03:26:14.361Z,28.09
2023-05-12T03:27:14.438Z,28.08
2023-05-12T03:28:14.481Z,28.03
2023-05-12T03:29:14.534Z,28.05
2023-05-12T03:30:14.603Z,28.06
2023-05-12T03:31:14.676Z,28.06
2023-05-12T03:32:14.756Z,28.06
2023-05-12T03:33:14.849Z,28.03
2023-05-12T03:34:14.891Z,28.06
2023-05-12T03:35:14.936Z,28.07
2023-05-12T03:36:14.979Z,28.08
2023-05-12T03:37:15.052Z,28.10
2023-05-12T03:38:15.125Z,28.08
2023-05-12T03:39:15.172Z,28.09
2023-05-12T03:40:15.215Z,28.02
2023-05-12T03:41:15.289Z,28.04
2023-05-12T03:42:15.358Z,28.08
2023-05-12T03:43:15.445Z,28.04
2023-05-12T03:44:15.519Z,28.09
2023-05-12T03:45:15.553Z,28.09
2023-05-12T03:46:15.697Z,28.09
2023-05-12T03:47:15.764Z,28.08
2023-05-12T03:48:15.741Z,28.06
2023-05-12T03:49:15.777Z,28.05
2023-05-12T03:50:15.860Z,28.11
2023-05-12T03:51:15.912Z,28.06
2023-05-12T03:52:15.991Z,28.06
2023-05-12T03:53:16.022Z,28.07
2023-05-12T03:54:16.077Z,28.08
2023-05-12T03:55:16.132Z,28.00
2023-05-12T03:56:16.193Z,28.02
2023-05-12T03:57:16.250Z,28.02
2023-05-12T03:58:16.316Z,28.03
2023-05-12T03:59:16.365Z,28.06
2023-05-12T04:00:16.522Z,28.05
2023-05-12T04:01:16.476Z,28.00
2023-05-12T04:02:16.567Z,28.00
2023-05-12T04:03:16.655Z,28.03
2023-05-12T04:04:16.704Z,28.05
2023-05-12T04:05:16.712Z,28.00
2023-05-12T04:06:16.772Z,28.00
2023-05-12T04:07:16.850Z,28.05
2023-05-12T04:08:16.901Z,28.02
2023-05-12T04:09:16.940Z,28.05
2023-05-12T04:10:17.086Z,27.99
2023-05-12T04:11:17.057Z,27.97
2023-05-12T04:12:17.154Z,27.99
2023-05-12T04:13:17.255Z,27.98
2023-05-12T04:14:17.271Z,27.97
2023-05-12T04:15:17.321Z,28.00
2023-05-12T04:16:17.442Z,28.01
2023-05-12T04:17:17.568Z,27.99
2023-05-12T04:18:17.472Z,28.03
2023-05-12T04:19:17.560Z,28.01
2023-05-12T04:20:17.745Z,28.02
2023-05-12T04:21:17.663Z,27.99
2023-05-12T04:22:17.752Z,27.99
2023-05-12T04:23:17.792Z,28.02
2023-05-12T04:24:17.852Z,27.95
2023-05-12T04:25:17.928Z,28.00
2023-05-12T04:26:17.986Z,27.98
2023-05-12T04:27:18.060Z,27.97
2023-05-12T04:28:18.086Z,27.95
2023-05-12T04:29:18.167Z,27.92
2023-05-12T04:30:18.331Z,27.96
2023-05-12T04:31:18.361Z,28.03
2023-05-12T04:32:18.351Z,28.00
2023-05-12T04:33:18.418Z,27.99
2023-05-12T04:34:18.441Z,28.03
2023-05-12T04:35:18.583Z,27.93
2023-05-12T04:36:18.568Z,27.95
2023-05-12T04:37:18.626Z,27.99
2023-05-12T04:38:18.691Z,27.97
2023-05-12T04:39:18.764Z,28.00
2023-05-12T04:40:19.111Z,27.98
2023-05-12T04:41:18.882Z,27.99
2023-05-12T04:42:18.944Z,28.00
2023-05-12T04:44:19.010Z,27.99
2023-05-12T04:45:19.204Z,28.02
2023-05-12T04:46:18.980Z,27.99
2023-05-12T04:47:18.980Z,28.00
2023-05-12T04:48:18.952Z,27.96
2023-05-12T04:49:18.938Z,28.03
2023-05-12T04:50:18.952Z,27.98
2023-05-12T04:51:18.950Z,27.98
2023-05-12T04:52:18.948Z,27.97
2023-05-12T04:53:18.955Z,28.02
2023-05-12T04:54:18.905Z,27.96
2023-05-12T04:55:19.108Z,27.92
2023-05-12T04:56:18.911Z,27.92
2023-05-12T04:57:18.961Z,27.93
2023-05-12T04:58:18.885Z,27.86
2023-05-12T04:59:18.902Z,27.89
2023-05-12T05:00:18.878Z,27.91
2023-05-12T05:01:18.899Z,27.91
2023-05-12T05:02:18.901Z,27.91
2023-05-12T05:03:18.997Z,27.89
2023-05-12T05:04:18.866Z,27.85
2023-05-12T05:05:19.226Z,27.92
2023-05-12T05:06:18.838Z,27.86
2023-05-12T05:07:18.850Z,27.83
2023-05-12T05:08:18.838Z,27.86
2023-05-12T05:09:18.822Z,27.88
2023-05-12T05:10:18.824Z,27.87
2023-05-12T05:11:18.815Z,27.85
2023-05-12T05:12:18.823Z,27.83
2023-05-12T05:13:18.800Z,27.83
2023-05-12T05:14:18.780Z,27.88
2023-05-12T05:15:18.984Z,27.82
2023-05-12T05:16:18.845Z,27.82
2023-05-12T05:17:18.764Z,27.82
2023-05-12T05:18:19.454Z,27.81
2023-05-12T05:19:22.594Z,27.82
2023-05-12T05:20:19.956Z,27.78
2023-05-12T05:21:18.867Z,27.78
2023-05-12T05:22:18.854Z,27.78
2023-05-12T05:23:18.891Z,27.82
2023-05-12T05:24:18.830Z,27.79
2023-05-12T05:25:19.025Z,27.75
2023-05-12T05:26:18.834Z,27.78
2023-05-12T05:27:18.814Z,27.76
2023-05-12T05:28:18.818Z,27.72
2023-05-12T05:29:18.823Z,27.67
2023-05-12T05:30:18.880Z,27.70
2023-05-12T05:31:19.079Z,27.82
2023-05-12T05:32:19.054Z,27.87
2023-05-12T05:33:19.093Z,27.86
2023-05-12T05:34:19.182Z,28.04
2023-05-12T05:35:19.473Z,28.14
2023-05-12T05:36:19.259Z,28.50
2023-05-12T05:37:19.308Z,28.54
2023-05-12T05:38:19.271Z,28.73
2023-05-12T05:39:19.318Z,29.11
2023-05-12T05:40:19.406Z,29.14
2023-05-12T05:41:19.417Z,29.24
2023-05-12T05:42:19.421Z,29.25
2023-05-12T05:43:19.433Z,29.29
2023-05-12T05:44:19.427Z,29.32
2023-05-12T05:45:19.670Z,29.43
2023-05-12T05:46:19.550Z,29.61
2023-05-12T05:47:19.898Z,29.62
2023-05-12T05:48:19.554Z,29.63
2023-05-12T05:49:19.659Z,29.73
2023-05-12T05:50:19.699Z,29.82
2023-05-12T05:51:19.750Z,29.94
2023-05-12T05:52:19.896Z,29.85
2023-05-12T05:53:19.852Z,29.73
2023-05-12T05:54:19.842Z,29.93
2023-05-12T05:55:20.067Z,29.97
2023-05-12T05:56:19.880Z,29.88
2023-05-12T05:57:20.001Z,29.95
2023-05-12T05:58:20.184Z,30.01
2023-05-12T05:59:20.066Z,29.91
2023-05-12T06:00:20.078Z,29.50
2023-05-12T06:01:20.048Z,30.18
2023-05-12T06:02:20.142Z,30.22
2023-05-12T06:03:20.249Z,30.07
2023-05-12T06:04:20.335Z,29.96
2023-05-12T06:05:20.449Z,30.02
2023-05-12T06:06:20.205Z,30.09
2023-05-12T06:07:22.086Z,30.08
2023-05-12T06:08:20.332Z,30.00
2023-05-12T06:09:20.360Z,29.99
2023-05-12T06:10:20.625Z,29.88
2023-05-12T06:11:20.466Z,29.92
2023-05-12T06:12:20.529Z,29.92
2023-05-12T06:13:20.660Z,29.93
2023-05-12T06:14:20.640Z,29.93
2023-05-12T06:15:20.942Z,29.92
2023-05-12T06:16:20.831Z,29.92
2023-05-12T06:17:20.883Z,29.89
2023-05-12T06:18:20.967Z,29.86
2023-05-12T06:19:20.955Z,29.84
2023-05-12T06:20:21.008Z,29.85
2023-05-12T06:21:21.069Z,29.91
2023-05-12T06:22:21.169Z,29.68
2023-05-12T06:23:21.252Z,29.89
2023-05-12T06:24:21.270Z,29.91
2023-05-12T06:25:22.118Z,29.85
2023-05-12T06:26:21.396Z,29.85
2023-05-12T06:27:21.841Z,29.85
2023-05-12T06:28:22.850Z,29.90
2023-05-12T06:29:21.532Z,29.87
2023-05-12T06:30:21.592Z,29.84
2023-05-12T06:31:21.733Z,29.84
2023-05-12T06:32:21.936Z,29.75
2023-05-12T06:33:21.880Z,30.01
2023-05-12T06:34:21.805Z,29.96
2023-05-12T06:35:21.968Z,29.82
2023-05-12T06:36:21.867Z,29.87
2023-05-12T06:37:21.937Z,29.85
2023-05-12T06:38:22.025Z,29.85
2023-05-12T06:39:22.288Z,29.85
2023-05-12T06:40:22.174Z,29.82
2023-05-12T06:41:22.072Z,29.84
2023-05-12T06:42:22.186Z,29.68
2023-05-12T06:43:22.174Z,29.45
2023-05-12T06:44:22.251Z,29.70
2023-05-12T06:45:22.326Z,29.73
2023-05-12T06:46:22.397Z,29.73
2023-05-12T06:47:22.316Z,29.72
2023-05-12T06:48:22.437Z,29.76
2023-05-12T06:49:22.319Z,29.68
2023-05-12T06:50:22.334Z,29.65
2023-05-12T06:51:22.353Z,29.68
2023-05-12T06:52:22.397Z,29.60
2023-05-12T06:53:24.108Z,29.64
2023-05-12T06:54:22.372Z,29.59
2023-05-12T06:55:22.747Z,29.49
2023-05-12T06:56:22.383Z,29.59
2023-05-12T06:57:22.366Z,29.61
2023-05-12T06:58:22.400Z,29.45
2023-05-12T06:59:22.310Z,29.57
2023-05-12T07:00:22.312Z,29.64
2023-05-12T07:01:22.358Z,29.40
2023-05-12T07:02:22.307Z,29.55
2023-05-12T07:03:22.295Z,29.71
2023-05-12T07:04:22.274Z,29.80
2023-05-12T07:05:22.845Z,29.83
2023-05-12T07:06:22.272Z,29.82
2023-05-12T07:07:22.237Z,29.77
2023-05-12T07:08:22.237Z,29.96
2023-05-12T07:09:22.264Z,29.87
2023-05-12T07:10:22.328Z,29.93
2023-05-12T07:11:22.219Z,30.02
2023-05-12T07:12:22.230Z,29.93
2023-05-12T07:13:22.233Z,29.93
2023-05-12T07:14:22.201Z,29.91
2023-05-12T07:15:22.412Z,29.92
2023-05-12T07:16:22.232Z,29.92
2023-05-12T07:17:22.253Z,30.00
2023-05-12T07:18:22.458Z,30.01
2023-05-12T07:19:22.242Z,30.01
2023-05-12T07:20:22.179Z,30.03
2023-05-12T07:21:22.213Z,30.04
2023-05-12T07:22:22.156Z,30.02
2023-05-12T07:23:22.153Z,30.01
2023-05-12T07:24:22.143Z,30.06
2023-05-12T07:25:22.498Z,29.99
2023-05-12T07:26:22.205Z,29.82
2023-05-12T07:27:22.927Z,28.87
2023-05-12T07:28:22.473Z,28.74
2023-05-12T07:29:22.129Z,28.76
2023-05-12T07:30:22.100Z,28.60
2023-05-12T07:31:24.889Z,28.75
2023-05-12T07:32:22.289Z,28.72
2023-05-12T07:33:23.920Z,29.09
2023-05-12T07:34:22.091Z,29.28
2023-05-12T07:35:22.369Z,28.91
2023-05-12T07:36:22.232Z,28.63
2023-05-12T07:37:22.087Z,28.92
2023-05-12T07:38:22.063Z,27.57
2023-05-12T07:39:22.059Z,28.71
2023-05-12T07:40:23.037Z,29.07
2023-05-12T07:41:22.020Z,29.28
2023-05-12T07:42:22.065Z,29.20
2023-05-12T07:43:22.030Z,29.38
2023-05-12T07:44:22.025Z,29.19
2023-05-12T07:45:22.095Z,29.19
2023-05-12T07:46:22.036Z,29.35
2023-05-12T07:47:22.032Z,29.41
2023-05-12T07:48:22.395Z,29.53
2023-05-12T07:49:21.954Z,29.53
2023-05-12T07:50:22.024Z,29.49
2023-05-12T07:51:21.967Z,29.57
2023-05-12T07:52:21.968Z,29.43
2023-05-12T07:53:22.412Z,29.56
2023-05-12T07:54:21.927Z,29.63
2023-05-12T07:55:22.178Z,29.66
2023-05-12T07:56:22.016Z,29.72
2023-05-12T07:57:21.953Z,29.78
2023-05-12T07:58:22.367Z,29.75
2023-05-12T07:59:22.087Z,29.71
2023-05-12T08:00:21.941Z,29.62
2023-05-12T08:01:21.951Z,29.65
2023-05-12T08:02:22.000Z,29.52
2023-05-12T08:03:22.404Z,29.50
2023-05-12T08:04:21.964Z,29.60
2023-05-12T08:05:22.121Z,29.63
2023-05-12T08:06:21.962Z,29.64
2023-05-12T08:07:22.034Z,29.56
2023-05-12T08:08:21.985Z,29.60
2023-05-12T08:09:21.986Z,29.63
2023-05-12T08:10:22.042Z,29.13
2023-05-12T08:11:22.055Z,29.43
2023-05-12T08:12:22.297Z,29.49
2023-05-12T08:13:22.146Z,29.43
2023-05-12T08:14:22.092Z,29.49
2023-05-12T08:15:22.522Z,29.52
2023-05-12T08:16:22.152Z,29.47
2023-05-12T08:17:22.125Z,29.46
2023-05-12T08:18:22.951Z,29.43
2023-05-12T08:19:22.182Z,29.30
2023-05-12T08:20:22.273Z,29.27
2023-05-12T08:21:22.256Z,29.15
2023-05-12T08:22:22.290Z,29.36
2023-05-12T08:23:22.331Z,29.39
2023-05-12T08:24:22.360Z,29.27
2023-05-12T08:25:22.445Z,29.23
2023-05-12T08:26:22.444Z,28.72
2023-05-12T08:27:22.418Z,27.45
2023-05-12T08:28:22.448Z,26.73
2023-05-12T08:29:22.410Z,26.64
2023-05-12T08:30:22.597Z,27.18
2023-05-12T08:31:22.550Z,26.78
2023-05-12T08:32:22.665Z,27.11
2023-05-12T08:33:22.693Z,26.58
2023-05-12T08:34:22.590Z,26.81
2023-05-12T08:35:22.910Z,26.70
2023-05-12T08:36:22.778Z,26.70
2023-05-12T08:37:22.737Z,26.82
2023-05-12T08:38:22.939Z,27.17
2023-05-12T08:39:22.777Z,27.93
2023-05-12T08:40:22.867Z,28.37
2023-05-12T08:41:22.833Z,28.79
2023-05-12T08:42:22.841Z,28.84
2023-05-12T08:43:23.459Z,29.24
2023-05-12T08:44:23.052Z,29.28
2023-05-12T08:45:22.973Z,29.52
2023-05-12T08:46:23.927Z,29.55
2023-05-12T08:47:23.024Z,29.53
2023-05-12T08:48:23.049Z,29.50
2023-05-12T08:49:23.055Z,29.54
2023-05-12T08:50:23.182Z,29.63
2023-05-12T08:51:23.067Z,29.67
2023-05-12T08:52:23.128Z,29.62
2023-05-12T08:53:23.374Z,29.65
2023-05-12T08:54:23.269Z,29.60
2023-05-12T08:55:26.286Z,29.63
2023-05-12T08:57:23.321Z,29.56
2023-05-12T08:58:33.960Z,29.36
2023-05-12T08:59:24.290Z,29.54
2023-05-12T09:00:23.369Z,29.54
2023-05-12T09:01:23.460Z,29.64
2023-05-12T09:02:23.536Z,29.22
2023-05-12T09:03:23.423Z,29.57
2023-05-12T09:04:23.412Z,29.50
2023-05-12T09:05:23.564Z,29.21
2023-05-12T09:06:23.236Z,29.44
2023-05-12T09:07:23.233Z,29.58
2023-05-12T09:08:23.310Z,29.53
2023-05-12T09:09:23.333Z,29.61
2023-05-12T09:10:34.534Z,29.59
2023-05-12T09:11:24.358Z,29.29
2023-05-12T09:12:23.320Z,29.07
2023-05-12T09:13:23.375Z,27.88
2023-05-12T09:14:23.365Z,28.06
2023-05-12T09:15:23.432Z,27.91
2023-05-12T09:16:23.639Z,28.10
2023-05-12T09:17:23.386Z,27.97
2023-05-12T09:18:23.902Z,27.78
2023-05-12T09:19:23.306Z,27.80
2023-05-12T09:20:30.922Z,27.58
2023-05-12T09:21:24.362Z,27.15
2023-05-12T09:22:23.271Z,27.08
2023-05-12T09:23:23.424Z,26.87
2023-05-12T09:24:23.377Z,27.73
2023-05-12T09:25:23.360Z,27.02
2023-05-12T09:26:23.261Z,26.08
2023-05-12T09:27:23.278Z,26.40
2023-05-12T09:28:23.266Z,26.22
2023-05-12T09:29:30.806Z,25.63
2023-05-12T09:30:24.257Z,25.55
2023-05-12T09:31:23.242Z,25.80
2023-05-12T09:32:23.197Z,26.22
2023-05-12T09:33:23.222Z,26.30
2023-05-12T09:34:23.204Z,26.39
2023-05-12T09:35:23.176Z,26.55
2023-05-12T09:36:23.175Z,26.56
2023-05-12T09:37:23.169Z,26.66
2023-05-12T09:38:23.146Z,26.63
2023-05-12T09:39:23.391Z,26.66
2023-05-12T09:40:23.137Z,26.61
2023-05-12T09:41:23.166Z,26.71
2023-05-12T09:42:23.177Z,26.42
2023-05-12T09:43:23.202Z,26.68
2023-05-12T09:44:23.257Z,26.51
2023-05-12T09:45:23.264Z,26.74
2023-05-12T09:46:23.302Z,26.60
2023-05-12T09:47:23.426Z,26.53
2023-05-12T09:48:24.064Z,26.90
2023-05-12T09:49:23.384Z,26.85
2023-05-12T09:50:23.433Z,26.63
2023-05-12T09:51:23.418Z,26.97
2023-05-12T09:52:23.441Z,26.82
2023-05-12T09:53:23.507Z,26.83
2023-05-12T09:54:23.895Z,26.84
2023-05-12T09:55:23.546Z,26.87
2023-05-12T09:56:23.652Z,26.75
2023-05-12T09:57:23.639Z,26.48
2023-05-12T09:58:23.658Z,26.43
2023-05-12T09:59:23.705Z,26.36
2023-05-12T10:00:38.537Z,26.34
2023-05-12T10:01:24.849Z,26.45
2023-05-12T10:02:23.961Z,26.70
2023-05-12T10:03:23.752Z,26.73
2023-05-12T10:04:23.747Z,26.77
2023-05-12T10:05:23.720Z,26.76
2023-05-12T10:06:23.744Z,26.81
2023-05-12T10:07:23.683Z,26.83
2023-05-12T10:08:23.715Z,26.84
2023-05-12T10:09:23.906Z,26.88
2023-05-12T10:10:23.688Z,26.81
2023-05-12T10:11:23.679Z,26.66
2023-05-12T10:12:23.704Z,26.73
2023-05-12T10:13:23.716Z,26.68
2023-05-12T10:14:23.877Z,26.62
2023-05-12T10:15:23.732Z,26.67
2023-05-12T10:16:23.836Z,26.60
2023-05-12T10:17:23.826Z,26.77
2023-05-12T10:18:23.852Z,26.76
2023-05-12T10:19:23.812Z,26.61
2023-05-12T10:20:23.824Z,26.46
2023-05-12T10:21:23.902Z,26.46
2023-05-12T10:22:23.854Z,26.38
2023-05-12T10:23:23.993Z,26.47
2023-05-12T10:24:24.456Z,26.38
2023-05-12T10:25:24.044Z,27.08
2023-05-12T10:26:23.961Z,27.19
2023-05-12T10:27:24.028Z,27.61
2023-05-12T10:28:24.041Z,27.66
2023-05-12T10:29:24.052Z,27.64
2023-05-12T10:30:24.289Z,27.86
2023-05-12T10:31:24.143Z,28.15
2023-05-12T10:32:24.163Z,28.26
2023-05-12T10:33:24.198Z,28.25
2023-05-12T10:34:24.423Z,28.38
2023-05-12T10:35:24.263Z,28.43
2023-05-12T10:36:24.343Z,28.32
2023-05-12T10:37:24.409Z,28.37
2023-05-12T10:38:24.372Z,28.34
2023-05-12T10:39:24.392Z,28.39
2023-05-12T10:40:24.413Z,28.52
2023-05-12T10:41:24.435Z,28.68
2023-05-12T10:42:24.407Z,28.72
2023-05-12T10:43:24.388Z,28.83
2023-05-12T10:44:24.384Z,28.96
2023-05-12T10:45:24.422Z,29.03
2023-05-12T10:46:24.560Z,29.10
2023-05-12T10:47:24.589Z,29.28
2023-05-12T10:48:24.655Z,29.43
2023-05-12T10:49:24.717Z,29.43
2023-05-12T10:50:24.751Z,29.69
2023-05-12T10:51:24.846Z,29.69
2023-05-12T10:52:24.861Z,29.62
2023-05-12T10:53:26.196Z,29.68
2023-05-12T10:54:25.403Z,29.71
2023-05-12T10:55:25.151Z,29.82
2023-05-12T10:56:25.506Z,29.92
2023-05-12T10:57:25.039Z,30.00
2023-05-12T10:58:25.215Z,29.94
2023-05-12T10:59:25.268Z,29.94
2023-05-12T11:00:25.570Z,30.03
2023-05-12T11:01:25.277Z,30.08
2023-05-12T11:02:25.973Z,30.20
2023-05-12T11:03:25.521Z,30.26
2023-05-12T11:04:25.045Z,30.33
2023-05-12T11:05:25.143Z,30.32
2023-05-12T11:06:25.578Z,30.47
2023-05-12T11:07:24.993Z,30.41
2023-05-12T11:08:25.091Z,30.56
2023-05-12T11:09:25.132Z,30.65
2023-05-12T11:10:24.901Z,30.61
2023-05-12T11:11:25.125Z,30.78
2023-05-12T11:12:24.849Z,30.33
2023-05-12T11:13:24.803Z,30.65
2023-05-12T11:14:25.419Z,30.74
2023-05-12T11:15:25.407Z,30.86
2023-05-12T11:16:24.757Z,30.84
2023-05-12T11:17:24.791Z,31.19
2023-05-12T11:18:24.750Z,30.92
2023-05-12T11:19:24.913Z,30.65
2023-05-12T11:20:24.734Z,30.16
2023-05-12T11:21:24.782Z,30.60
2023-05-12T11:22:24.788Z,29.93
2023-05-12T11:23:24.863Z,30.06
2023-05-12T11:24:24.914Z,29.37
2023-05-12T11:25:25.402Z,29.29
2023-05-12T11:26:24.952Z,29.10
2023-05-12T11:27:25.003Z,28.97
2023-05-12T11:28:25.043Z,28.95
2023-05-12T11:29:25.073Z,28.82
2023-05-12T11:30:25.160Z,28.60
2023-05-12T11:31:25.190Z,28.61
2023-05-12T11:32:25.256Z,28.58
2023-05-12T11:33:25.255Z,28.32
2023-05-12T11:34:25.349Z,28.11
2023-05-12T11:35:25.403Z,28.17
2023-05-12T11:36:25.437Z,28.03
2023-05-12T11:37:25.495Z,27.86
2023-05-12T11:38:25.529Z,27.81
2023-05-12T11:39:25.587Z,27.77
2023-05-12T11:40:25.724Z,27.77
2023-05-12T11:41:25.736Z,27.71
2023-05-12T11:42:25.999Z,27.69
2023-05-12T11:43:25.849Z,27.60
2023-05-12T11:44:25.966Z,27.56
2023-05-12T11:45:26.016Z,27.58
2023-05-12T11:46:26.086Z,27.55
2023-05-12T11:47:26.218Z,27.47
2023-05-12T11:48:26.144Z,27.47
2023-05-12T11:49:26.215Z,27.46
2023-05-12T11:50:26.348Z,27.52
2023-05-12T11:51:26.303Z,27.40
2023-05-12T11:52:26.357Z,27.47
2023-05-12T11:53:27.707Z,27.48
2023-05-12T11:54:26.476Z,27.31
2023-05-12T11:55:26.664Z,27.31
2023-05-12T11:56:26.585Z,27.14
2023-05-12T11:57:26.715Z,27.22
2023-05-12T11:58:26.822Z,27.23
2023-05-12T11:59:26.773Z,27.33
2023-05-12T12:00:26.815Z,27.38
2023-05-12T12:01:26.883Z,27.60
2023-05-12T12:02:27.015Z,27.52
2023-05-12T12:03:27.054Z,27.57
2023-05-12T12:04:27.457Z,27.68
2023-05-12T12:05:27.048Z,27.62
2023-05-12T12:06:27.070Z,27.48
2023-05-12T12:07:27.147Z,27.42
2023-05-12T12:08:27.156Z,27.43
2023-05-12T12:09:27.420Z,27.31
2023-05-12T12:10:27.271Z,27.43
2023-05-12T12:11:27.279Z,27.47
2023-05-12T12:12:27.319Z,27.47
2023-05-12T12:13:27.360Z,27.46
2023-05-12T12:14:27.477Z,27.40
2023-05-12T12:15:27.469Z,27.36
2023-05-12T12:16:27.634Z,27.18
2023-05-12T12:17:27.553Z,27.17
2023-05-12T12:18:27.577Z,27.08
2023-05-12T12:19:27.609Z,27.24
2023-05-12T12:20:27.633Z,26.92
2023-05-12T12:21:27.687Z,27.08
2023-05-12T12:22:27.702Z,26.36
2023-05-12T12:23:27.694Z,27.67
2023-05-12T12:24:27.680Z,27.58
2023-05-12T12:25:27.724Z,27.08
2023-05-12T12:26:27.746Z,27.39
2023-05-12T12:27:27.690Z,27.28
2023-05-12T12:28:27.718Z,27.20
2023-05-12T12:29:27.686Z,27.44
2023-05-12T12:30:27.724Z,27.87
2023-05-12T12:31:27.801Z,27.71
2023-05-12T12:32:27.743Z,28.69
2023-05-12T12:33:27.709Z,29.80
2023-05-12T12:34:27.707Z,32.09
2023-05-12T12:35:27.724Z,34.28
2023-05-12T12:36:27.684Z,35.17
2023-05-12T12:37:27.688Z,34.65
2023-05-12T12:38:27.681Z,33.44
2023-05-12T12:39:27.703Z,32.97
2023-05-12T12:40:27.705Z,32.66
2023-05-12T12:41:27.703Z,32.74
2023-05-12T12:42:27.701Z,33.89
2023-05-12T12:43:27.681Z,33.91
2023-05-12T12:44:27.708Z,34.10
2023-05-12T12:45:27.715Z,34.14
2023-05-12T12:46:27.712Z,33.18
2023-05-12T12:47:27.702Z,32.46
2023-05-12T12:48:27.684Z,32.22
2023-05-12T12:49:27.687Z,32.26
2023-05-12T12:50:27.689Z,32.24
2023-05-12T12:51:38.551Z,32.04
2023-05-12T12:52:28.715Z,31.96
2023-05-12T12:53:27.716Z,31.92
2023-05-12T12:54:27.807Z,32.00